sensor_id;sensor_type;location;lat;lon;timestamp;pressure;altitude;pressure_sealevel;temperature;humidity
50684;BME280;36654;45.042;38.994;2023-03-21T00:00:56;101149.69;;;9.11;88.59
50684;BME280;36654;45.042;38.994;2023-03-21T00:03:23;101118.38;;;8.93;88.55
50684;BME280;36654;45.042;38.994;2023-03-21T00:05:48;101122.13;;;9.01;88.48
50684;BME280;36654;45.042;38.994;2023-03-21T00:08:17;101147.03;;;9.13;88.43
50684;BME280;36654;45.042;38.994;2023-03-21T00:10:43;101147.03;;;9.11;88.68
50684;BME280;36654;45.042;38.994;2023-03-21T00:13:13;101148.88;;;9.15;88.65
50684;BME280;36654;45.042;38.994;2023-03-21T00:15:39;101126.66;;;9.07;88.64
50684;BME280;36654;45.042;38.994;2023-03-21T00:18:17;101139.16;;;9.14;88.91
50684;BME280;36654;45.042;38.994;2023-03-21T00:20:43;101139.22;;;9.17;88.94
50684;BME280;36654;45.042;38.994;2023-03-21T00:23:16;101123.28;;;9.14;88.89
50684;BME280;36654;45.042;38.994;2023-03-21T00:25:41;101117.19;;;9.17;89.18
50684;BME280;36654;45.042;38.994;2023-03-21T00:28:07;101138.34;;;9.18;88.83
50684;BME280;36654;45.042;38.994;2023-03-21T00:30:32;101123.28;;;9.14;89.24
50684;BME280;36654;45.042;38.994;2023-03-21T00:32:58;101122.41;;;9.14;89.63
50684;BME280;36654;45.042;38.994;2023-03-21T00:35:24;101137.56;;;9.22;89.40
50684;BME280;36654;45.042;38.994;2023-03-21T00:37:49;101106.31;;;9.04;89.77
50684;BME280;36654;45.042;38.994;2023-03-21T00:40:15;101114.38;;;9.11;89.89
50684;BME280;36654;45.042;38.994;2023-03-21T00:42:41;101137.72;;;9.28;90.00
50684;BME280;36654;45.042;38.994;2023-03-21T00:45:07;101077.03;;;8.97;90.14
50684;BME280;36654;45.042;38.994;2023-03-21T00:47:34;101135.88;;;9.24;90.05
50684;BME280;36654;45.042;38.994;2023-03-21T00:50:00;101126.16;;;9.25;90.16
50684;BME280;36654;45.042;38.994;2023-03-21T00:52:26;101136.97;;;9.36;90.27
50684;BME280;36654;45.042;38.994;2023-03-21T00:54:51;101094.97;;;9.10;90.38
50684;BME280;36654;45.042;38.994;2023-03-21T00:57:17;101110.22;;;9.22;90.28
50684;BME280;36654;45.042;38.994;2023-03-21T00:59:43;101126.22;;;9.28;90.54
50684;BME280;36654;45.042;38.994;2023-03-21T01:02:09;101114.69;;;9.24;90.48
50684;BME280;36654;45.042;38.994;2023-03-21T01:04:44;101095.19;;;9.19;90.73
50684;BME280;36654;45.042;38.994;2023-03-21T01:07:19;101134.50;;;9.42;90.70
50684;BME280;36654;45.042;38.994;2023-03-21T01:09:44;101107.75;;;9.29;90.63
50684;BME280;36654;45.042;38.994;2023-03-21T01:12:10;101131.69;;;9.36;90.83
50684;BME280;36654;45.042;38.994;2023-03-21T01:14:36;101136.31;;;9.46;90.71
50684;BME280;36654;45.042;38.994;2023-03-21T01:17:02;101115.75;;;9.33;90.66
50684;BME280;36654;45.042;38.994;2023-03-21T01:19:28;101118.47;;;9.36;90.90
50684;BME280;36654;45.042;38.994;2023-03-21T01:21:55;101136.41;;;9.49;90.80
50684;BME280;36654;45.042;38.994;2023-03-21T01:24:21;101131.13;;;9.49;90.82
50684;BME280;36654;45.042;38.994;2023-03-21T01:26:46;101123.09;;;9.44;90.57
50684;BME280;36654;45.042;38.994;2023-03-21T01:29:12;101105.16;;;9.33;90.52
50684;BME280;36654;45.042;38.994;2023-03-21T01:31:38;101131.91;;;9.45;90.36
50684;BME280;36654;45.042;38.994;2023-03-21T01:34:03;101135.53;;;9.50;90.19
50684;BME280;36654;45.042;38.994;2023-03-21T01:36:29;101130.25;;;9.48;89.95
50684;BME280;36654;45.042;38.994;2023-03-21T01:38:55;101147.94;;;9.51;90.25
50684;BME280;36654;45.042;38.994;2023-03-21T01:41:27;101150.66;;;9.54;90.16
50684;BME280;36654;45.042;38.994;2023-03-21T01:43:53;101151.56;;;9.56;90.20
50684;BME280;36654;45.042;38.994;2023-03-21T01:49:19;101149.72;;;9.52;89.96
50684;BME280;36654;45.042;38.994;2023-03-21T01:51:52;101150.66;;;9.54;90.06
50684;BME280;36654;45.042;38.994;2023-03-21T01:54:23;101141.63;;;9.46;89.71
50684;BME280;36654;45.042;38.994;2023-03-21T01:56:54;101139.91;;;9.48;89.77
50684;BME280;36654;45.042;38.994;2023-03-21T01:59:28;101155.94;;;9.54;89.92
50684;BME280;36654;45.042;38.994;2023-03-21T02:01:55;101138.19;;;9.48;89.86
50684;BME280;36654;45.042;38.994;2023-03-21T02:04:24;101161.22;;;9.54;89.62
50684;BME280;36654;45.042;38.994;2023-03-21T02:06:56;101155.94;;;9.56;89.30
50684;BME280;36654;45.042;38.994;2023-03-21T02:09:26;101154.00;;;9.47;89.15
50684;BME280;36654;45.042;38.994;2023-03-21T02:11:53;101147.84;;;9.46;88.85
50684;BME280;36654;45.042;38.994;2023-03-21T02:14:19;101138.91;;;9.43;88.87
50684;BME280;36654;45.042;38.994;2023-03-21T02:17:04;101115.69;;;9.29;88.54
50684;BME280;36654;45.042;38.994;2023-03-21T02:29:06;101134.44;;;9.39;87.63
50684;BME280;36654;45.042;38.994;2023-03-21T02:34:20;101161.06;;;9.48;87.58
50684;BME280;36654;45.042;38.994;2023-03-21T02:39:48;101151.13;;;9.36;87.41
50684;BME280;36654;45.042;38.994;2023-03-21T02:42:28;101167.09;;;9.41;87.53
50684;BME280;36654;45.042;38.994;2023-03-21T02:45:04;101152.84;;;9.36;87.43
50684;BME280;36654;45.042;38.994;2023-03-21T02:52:49;101164.38;;;9.38;86.77
50684;BME280;36654;45.042;38.994;2023-03-21T02:55:24;101154.63;;;9.35;86.63
50684;BME280;36654;45.042;38.994;2023-03-21T02:57:53;101150.16;;;9.33;86.47
50684;BME280;36654;45.042;38.994;2023-03-21T03:00:31;101141.22;;;9.27;86.27
50684;BME280;36654;45.042;38.994;2023-03-21T03:02:58;101177.78;;;9.45;86.44
50684;BME280;36654;45.042;38.994;2023-03-21T03:05:27;101136.56;;;9.17;86.54
50684;BME280;36654;45.042;38.994;2023-03-21T03:16:23;101186.53;;;9.41;86.65
50684;BME280;36654;45.042;38.994;2023-03-21T03:18:54;101197.03;;;9.38;86.76
50684;BME280;36654;45.042;38.994;2023-03-21T03:21:31;101184.66;;;9.37;86.70
50684;BME280;36654;45.042;38.994;2023-03-21T03:24:04;101182.78;;;9.33;86.86
50684;BME280;36654;45.042;38.994;2023-03-21T03:26:36;101196.19;;;9.39;86.86
50684;BME280;36654;45.042;38.994;2023-03-21T03:29:07;101200.59;;;9.40;87.04
50684;BME280;36654;45.042;38.994;2023-03-21T03:31:36;101194.28;;;9.34;86.88
50684;BME280;36654;45.042;38.994;2023-03-21T03:34:10;101199.66;;;9.37;87.06
50684;BME280;36654;45.042;38.994;2023-03-21T03:36:41;101206.66;;;9.35;87.25
50684;BME280;36654;45.042;38.994;2023-03-21T03:39:09;101189.63;;;9.23;87.26
50684;BME280;36654;45.042;38.994;2023-03-21T03:41:42;101203.06;;;9.33;87.24
50684;BME280;36654;45.042;38.994;2023-03-21T03:44:09;101207.31;;;9.26;87.16
50684;BME280;36654;45.042;38.994;2023-03-21T03:46:40;101225.28;;;9.39;87.60
50684;BME280;36654;45.042;38.994;2023-03-21T03:49:16;101192.13;;;9.17;87.69
50684;BME280;36654;45.042;38.994;2023-03-21T03:54:25;101232.09;;;9.29;87.73
50684;BME280;36654;45.042;38.994;2023-03-21T03:56:53;101220.44;;;9.21;88.06
50684;BME280;36654;45.042;38.994;2023-03-21T03:59:19;101239.19;;;9.31;88.31
50684;BME280;36654;45.042;38.994;2023-03-21T04:01:47;101233.88;;;9.29;88.26
50684;BME280;36654;45.042;38.994;2023-03-21T04:04:14;101252.41;;;9.31;88.19
50684;BME280;36654;45.042;38.994;2023-03-21T04:06:44;101257.78;;;9.34;88.22
50684;BME280;36654;45.042;38.994;2023-03-21T04:09:16;101248.84;;;9.28;88.52
50684;BME280;36654;45.042;38.994;2023-03-21T04:11:42;101246.16;;;9.27;88.61
50684;BME280;36654;45.042;38.994;2023-03-21T04:14:08;101201.44;;;9.01;88.35
50684;BME280;36654;45.042;38.994;2023-03-21T04:16:34;101252.34;;;9.27;88.71
50684;BME280;36654;45.042;38.994;2023-03-21T04:18:59;101238.09;;;9.22;88.65
50684;BME280;36654;45.042;38.994;2023-03-21T04:21:25;101247.94;;;9.28;88.93
50684;BME280;36654;45.042;38.994;2023-03-21T04:23:52;101223.88;;;9.17;88.88
50684;BME280;36654;45.042;38.994;2023-03-21T04:26:22;101233.69;;;9.23;88.97
50684;BME280;36654;45.042;38.994;2023-03-21T04:28:49;101254.16;;;9.28;88.90
50684;BME280;36654;45.042;38.994;2023-03-21T04:31:16;101252.38;;;9.29;88.94
50684;BME280;36654;45.042;38.994;2023-03-21T04:33:43;101240.69;;;9.19;89.33
50684;BME280;36654;45.042;38.994;2023-03-21T04:36:09;101258.50;;;9.28;89.25
50684;BME280;36654;45.042;38.994;2023-03-21T04:38:50;101237.84;;;9.12;89.44
50684;BME280;36654;45.042;38.994;2023-03-21T04:41:17;101259.38;;;9.27;89.65
50684;BME280;36654;45.042;38.994;2023-03-21T04:43:43;101255.69;;;9.20;89.75
50684;BME280;36654;45.042;38.994;2023-03-21T04:46:09;101264.59;;;9.24;90.02
50684;BME280;36654;45.042;38.994;2023-03-21T04:48:35;101258.25;;;9.17;90.23
50684;BME280;36654;45.042;38.994;2023-03-21T04:51:00;101267.25;;;9.24;90.42
50684;BME280;36654;45.042;38.994;2023-03-21T04:53:26;101250.31;;;9.17;90.43
50684;BME280;36654;45.042;38.994;2023-03-21T04:55:52;101245.72;;;9.09;90.43
50684;BME280;36654;45.042;38.994;2023-03-21T04:58:17;101228.72;;;8.99;90.63
50684;BME280;36654;45.042;38.994;2023-03-21T05:00:45;101254.84;;;9.21;90.92
50684;BME280;36654;45.042;38.994;2023-03-21T05:03:11;101237.78;;;9.10;91.09
50684;BME280;36654;45.042;38.994;2023-03-21T05:05:44;101253.91;;;9.19;91.03
50684;BME280;36654;45.042;38.994;2023-03-21T05:08:11;101250.28;;;9.16;90.88
50684;BME280;36654;45.042;38.994;2023-03-21T05:10:37;101253.09;;;9.23;91.07
50684;BME280;36654;45.042;38.994;2023-03-21T05:13:03;101213.63;;;8.95;90.91
50684;BME280;36654;45.042;38.994;2023-03-21T05:15:28;101222.78;;;9.09;91.12
50684;BME280;36654;45.042;38.994;2023-03-21T05:17:54;101255.84;;;9.26;90.94
50684;BME280;36654;45.042;38.994;2023-03-21T05:20:23;101269.19;;;9.31;90.67
50684;BME280;36654;45.042;38.994;2023-03-21T05:22:49;101253.97;;;9.22;90.65
50684;BME280;36654;45.042;38.994;2023-03-21T05:25:18;101236.16;;;9.15;90.77
50684;BME280;36654;45.042;38.994;2023-03-21T05:27:46;101252.34;;;9.27;90.59
50684;BME280;36654;45.042;38.994;2023-03-21T05:30:18;101273.75;;;9.37;90.70
50684;BME280;36654;45.042;38.994;2023-03-21T05:32:44;101267.50;;;9.35;90.43
50684;BME280;36654;45.042;38.994;2023-03-21T05:35:10;101252.28;;;9.24;89.90
50684;BME280;36654;45.042;38.994;2023-03-21T05:37:35;101263.03;;;9.32;89.49
50684;BME280;36654;45.042;38.994;2023-03-21T05:40:03;101269.22;;;9.33;89.65
50684;BME280;36654;45.042;38.994;2023-03-21T05:42:31;101249.75;;;9.29;89.73
50684;BME280;36654;45.042;38.994;2023-03-21T05:44:57;101275.69;;;9.44;89.30
50684;BME280;36654;45.042;38.994;2023-03-21T05:47:22;101248.81;;;9.27;89.04
50684;BME280;36654;45.042;38.994;2023-03-21T05:49:48;101271.28;;;9.44;88.71
50684;BME280;36654;45.042;38.994;2023-03-21T05:52:14;101246.78;;;9.17;88.65
50684;BME280;36654;45.042;38.994;2023-03-21T05:54:40;101241.69;;;9.24;88.64
50684;BME280;36654;45.042;38.994;2023-03-21T05:57:06;101272.16;;;9.45;88.33
50684;BME280;36654;45.042;38.994;2023-03-21T05:59:32;101275.81;;;9.50;88.09
50684;BME280;36654;45.042;38.994;2023-03-21T06:01:58;101290.00;;;9.52;88.16
50684;BME280;36654;45.042;38.994;2023-03-21T06:04:23;101258.81;;;9.39;88.02
50684;BME280;36654;45.042;38.994;2023-03-21T06:06:50;101286.47;;;9.53;87.93
50684;BME280;36654;45.042;38.994;2023-03-21T06:09:21;101283.00;;;9.54;87.77
50684;BME280;36654;45.042;38.994;2023-03-21T06:11:49;101281.34;;;9.59;87.88
50684;BME280;36654;45.042;38.994;2023-03-21T06:14:16;101281.34;;;9.59;87.98
50684;BME280;36654;45.042;38.994;2023-03-21T06:16:42;101286.63;;;9.59;88.02
50684;BME280;36654;45.042;38.994;2023-03-21T06:19:08;101270.59;;;9.53;87.95
50684;BME280;36654;45.042;38.994;2023-03-21T06:21:37;101274.16;;;9.54;88.03
50684;BME280;36654;45.042;38.994;2023-03-21T06:24:06;101285.75;;;9.59;88.08
50684;BME280;36654;45.042;38.994;2023-03-21T06:26:38;101296.34;;;9.60;88.34
50684;BME280;36654;45.042;38.994;2023-03-21T06:29:06;101275.81;;;9.50;88.29
50684;BME280;36654;45.042;38.994;2023-03-21T06:31:32;101271.53;;;9.55;88.26
50684;BME280;36654;45.042;38.994;2023-03-21T06:33:58;101281.47;;;9.65;88.49
50684;BME280;36654;45.042;38.994;2023-03-21T06:36:23;101239.63;;;9.49;88.33
50684;BME280;36654;45.042;38.994;2023-03-21T06:38:49;101280.69;;;9.69;88.39
50684;BME280;36654;45.042;38.994;2023-03-21T06:41:15;101282.47;;;9.70;88.36
50684;BME280;36654;45.042;38.994;2023-03-21T06:43:43;101278.06;;;9.69;88.62
50684;BME280;36654;45.042;38.994;2023-03-21T06:46:09;101274.63;;;9.74;88.65
50684;BME280;36654;45.042;38.994;2023-03-21T06:48:35;101273.81;;;9.76;88.66
50684;BME280;36654;45.042;38.994;2023-03-21T06:51:04;101207.72;;;9.43;88.67
50684;BME280;36654;45.042;38.994;2023-03-21T06:53:32;101268.69;;;9.84;88.34
50684;BME280;36654;45.042;38.994;2023-03-21T06:55:58;101271.38;;;9.87;88.38
50684;BME280;36654;45.042;38.994;2023-03-21T06:58:23;101266.16;;;9.90;88.32
50684;BME280;36654;45.042;38.994;2023-03-21T07:00:49;101243.03;;;9.83;88.22
50684;BME280;36654;45.042;38.994;2023-03-21T07:03:15;101264.41;;;9.90;88.31
50684;BME280;36654;45.042;38.994;2023-03-21T07:05:41;101253.78;;;9.89;87.84
50684;BME280;36654;45.042;38.994;2023-03-21T07:08:08;101262.78;;;9.97;88.14
50684;BME280;36654;45.042;38.994;2023-03-21T07:10:40;101264.50;;;9.95;87.89
50684;BME280;36654;45.042;38.994;2023-03-21T07:13:06;101263.56;;;9.91;87.67
50684;BME280;36654;45.042;38.994;2023-03-21T07:15:32;101253.91;;;9.95;87.58
50684;BME280;36654;45.042;38.994;2023-03-21T07:17:59;101209.28;;;9.72;87.50
50684;BME280;36654;45.042;38.994;2023-03-21T07:20:24;101253.97;;;9.98;87.32
50684;BME280;36654;45.042;38.994;2023-03-21T07:22:51;101261.28;;;10.08;87.30
50684;BME280;36654;45.042;38.994;2023-03-21T07:25:17;101223.78;;;9.90;87.11
50684;BME280;36654;45.042;38.994;2023-03-21T07:27:44;101253.28;;;10.07;86.82
50684;BME280;36654;45.042;38.994;2023-03-21T07:30:13;101258.78;;;10.16;86.64
50684;BME280;36654;45.042;38.994;2023-03-21T07:32:39;101268.63;;;10.23;86.66
50684;BME280;36654;45.042;38.994;2023-03-21T07:35:07;101252.50;;;10.12;86.53
50684;BME280;36654;45.042;38.994;2023-03-21T07:37:33;101275.16;;;10.38;86.18
50684;BME280;36654;45.042;38.994;2023-03-21T07:39:59;101277.00;;;10.42;85.71
50684;BME280;36654;45.042;38.994;2023-03-21T07:42:24;101271.75;;;10.45;85.38
50684;BME280;36654;45.042;38.994;2023-03-21T07:44:50;101246.97;;;10.43;84.94
50684;BME280;36654;45.042;38.994;2023-03-21T07:47:17;101271.19;;;10.60;84.70
50684;BME280;36654;45.042;38.994;2023-03-21T07:49:42;101280.13;;;10.65;83.99
50684;BME280;36654;45.042;38.994;2023-03-21T07:52:08;101256.19;;;10.62;83.85
50684;BME280;36654;45.042;38.994;2023-03-21T07:54:33;101261.75;;;10.75;83.68
50684;BME280;36654;45.042;38.994;2023-03-21T07:56:59;101240.53;;;10.75;83.38
50684;BME280;36654;45.042;38.994;2023-03-21T07:59:25;101282.38;;;10.90;82.86
50684;BME280;36654;45.042;38.994;2023-03-21T08:01:50;101257.66;;;10.91;82.76
50684;BME280;36654;45.042;38.994;2023-03-21T08:04:16;101270.25;;;11.05;82.61
50684;BME280;36654;45.042;38.994;2023-03-21T08:06:42;101269.47;;;11.10;82.41
50684;BME280;36654;45.042;38.994;2023-03-21T08:09:07;101267.91;;;11.21;82.03
50684;BME280;36654;45.042;38.994;2023-03-21T08:11:33;101268.88;;;11.28;81.74
50684;BME280;36654;45.042;38.994;2023-03-21T08:13:59;101268.19;;;11.40;81.41
50684;BME280;36654;45.042;38.994;2023-03-21T08:16:26;101274.47;;;11.43;81.00
50684;BME280;36654;45.042;38.994;2023-03-21T08:19:16;101265.66;;;11.48;79.95
50684;BME280;36654;45.042;38.994;2023-03-21T08:21:45;101285.22;;;11.53;79.93
50684;BME280;36654;45.042;38.994;2023-03-21T08:24:10;101279.13;;;11.60;79.97
50684;BME280;36654;45.042;38.994;2023-03-21T08:26:36;101264.16;;;11.65;79.46
50684;BME280;36654;45.042;38.994;2023-03-21T08:29:02;101245.38;;;11.51;79.27
50684;BME280;36654;45.042;38.994;2023-03-21T08:31:28;101153.63;;;11.11;78.64
50684;BME280;36654;45.042;38.994;2023-03-21T08:33:53;101263.38;;;11.71;78.58
50684;BME280;36654;45.042;38.994;2023-03-21T08:36:21;101269.63;;;11.74;78.50
50684;BME280;36654;45.042;38.994;2023-03-21T08:38:47;101265.19;;;11.75;78.27
50684;BME280;36654;45.042;38.994;2023-03-21T08:41:16;101254.59;;;11.78;77.84
50684;BME280;36654;45.042;38.994;2023-03-21T08:43:43;101254.72;;;11.84;77.49
50684;BME280;36654;45.042;38.994;2023-03-21T08:46:08;101251.31;;;11.93;77.15
50684;BME280;36654;45.042;38.994;2023-03-21T08:48:34;101251.31;;;11.93;76.45
50684;BME280;36654;45.042;38.994;2023-03-21T08:51:03;101241.63;;;11.98;76.26
50684;BME280;36654;45.042;38.994;2023-03-21T08:53:30;101207.78;;;11.84;75.87
50684;BME280;36654;45.042;38.994;2023-03-21T08:55:56;101250.72;;;12.15;74.86
50684;BME280;36654;45.042;38.994;2023-03-21T08:58:21;101224.84;;;11.99;74.26
50684;BME280;36654;45.042;38.994;2023-03-21T09:00:47;101257.91;;;12.22;74.31
50684;BME280;36654;45.042;38.994;2023-03-21T09:03:13;101215.38;;;12.22;73.76
50684;BME280;36654;45.042;38.994;2023-03-21T09:05:38;101246.53;;;12.34;73.24
50684;BME280;36654;45.042;38.994;2023-03-21T09:08:05;101202.88;;;12.15;72.98
50684;BME280;36654;45.042;38.994;2023-03-21T09:10:31;101203.88;;;12.23;72.60
50684;BME280;36654;45.042;38.994;2023-03-21T09:12:57;101243.97;;;12.42;71.89
50684;BME280;36654;45.042;38.994;2023-03-21T09:15:26;101212.84;;;12.32;71.89
50684;BME280;36654;45.042;38.994;2023-03-21T09:17:53;101247.72;;;12.59;71.60
50684;BME280;36654;45.042;38.994;2023-03-21T09:20:22;101243.31;;;12.63;71.00
50684;BME280;36654;45.042;38.994;2023-03-21T09:22:50;101233.53;;;12.60;71.32
50684;BME280;36654;45.042;38.994;2023-03-21T09:25:19;101224.66;;;12.58;71.29
50684;BME280;36654;45.042;38.994;2023-03-21T09:27:45;101239.72;;;12.59;70.79
50684;BME280;36654;45.042;38.994;2023-03-21T09:30:14;101244.09;;;12.54;70.85
50684;BME280;36654;45.042;38.994;2023-03-21T09:32:40;101217.34;;;12.39;70.89
50684;BME280;36654;45.042;38.994;2023-03-21T09:35:06;101230.66;;;12.39;71.00
50684;BME280;36654;45.042;38.994;2023-03-21T09:37:35;101243.94;;;12.39;71.24
50684;BME280;36654;45.042;38.994;2023-03-21T09:40:19;101219.03;;;12.30;71.42
50684;BME280;36654;45.042;38.994;2023-03-21T09:43:02;101219.97;;;12.37;71.67
50684;BME280;36654;45.042;38.994;2023-03-21T09:47:59;101227.19;;;12.46;71.24
50684;BME280;36654;45.042;38.994;2023-03-21T09:50:36;101224.41;;;12.37;70.90
50684;BME280;36654;45.042;38.994;2023-03-21T09:53:34;101235.09;;;12.43;70.82
50684;BME280;36654;45.042;38.994;2023-03-21T09:56:05;101243.94;;;12.39;70.93
50684;BME280;36654;45.042;38.994;2023-03-21T09:58:39;101185.13;;;12.11;71.25
50684;BME280;36654;45.042;38.994;2023-03-21T10:01:11;101240.41;;;12.40;71.25
50684;BME280;36654;45.042;38.994;2023-03-21T10:03:51;101234.19;;;12.39;71.39
50684;BME280;36654;45.042;38.994;2023-03-21T10:06:19;101204.75;;;12.22;71.21
50684;BME280;36654;45.042;38.994;2023-03-21T10:08:56;101244.03;;;12.48;70.89
50684;BME280;36654;45.042;38.994;2023-03-21T10:11:31;101218.19;;;12.33;71.11
50684;BME280;36654;45.042;38.994;2023-03-21T10:14:05;101243.19;;;12.52;70.50
50684;BME280;36654;45.042;38.994;2023-03-21T10:16:39;101226.28;;;12.44;70.06
50684;BME280;36654;45.042;38.994;2023-03-21T10:19:17;101253.78;;;12.46;69.98
50684;BME280;36654;45.042;38.994;2023-03-21T10:21:46;101238.69;;;12.48;70.07
50684;BME280;36654;45.042;38.994;2023-03-21T10:24:21;101253.00;;;12.56;69.46
50684;BME280;36654;45.042;38.994;2023-03-21T10:26:50;101253.88;;;12.57;69.69
50684;BME280;36654;45.042;38.994;2023-03-21T10:29:18;101237.03;;;12.53;69.80
50684;BME280;36654;45.042;38.994;2023-03-21T10:31:48;101247.78;;;12.67;70.00
50684;BME280;36654;45.042;38.994;2023-03-21T10:34:24;101241.59;;;12.68;70.00
50684;BME280;36654;45.042;38.994;2023-03-21T10:36:52;101219.25;;;12.52;69.83
50684;BME280;36654;45.042;38.994;2023-03-21T10:39:39;101214.84;;;12.54;69.49
50684;BME280;36654;45.042;38.994;2023-03-21T10:42:08;101214.88;;;12.56;69.51
50684;BME280;36654;45.042;38.994;2023-03-21T10:44:39;101219.41;;;12.67;69.53
50684;BME280;36654;45.042;38.994;2023-03-21T10:47:11;101237.31;;;12.81;69.36
50684;BME280;36654;45.042;38.994;2023-03-21T10:49:37;101234.69;;;12.87;69.40
50684;BME280;36654;45.042;38.994;2023-03-21T10:52:08;101230.31;;;12.92;69.22
50684;BME280;36654;45.042;38.994;2023-03-21T10:54:35;101243.59;;;12.92;68.82
50684;BME280;36654;45.042;38.994;2023-03-21T10:57:22;101233.84;;;12.91;68.73
50684;BME280;36654;45.042;38.994;2023-03-21T10:59:55;101227.69;;;12.93;68.73
50684;BME280;36654;45.042;38.994;2023-03-21T11:02:30;101202.66;;;12.78;68.82
50684;BME280;36654;45.042;38.994;2023-03-21T11:05:04;101230.31;;;12.92;68.59
50684;BME280;36654;45.042;38.994;2023-03-21T11:07:30;101237.38;;;12.90;67.90
50684;BME280;36654;45.042;38.994;2023-03-21T11:09:58;101237.38;;;12.90;68.04
50684;BME280;36654;45.042;38.994;2023-03-21T11:12:47;101229.34;;;12.85;68.04
50684;BME280;36654;45.042;38.994;2023-03-21T11:17:49;101187.50;;;12.67;68.29
50684;BME280;36654;45.042;38.994;2023-03-21T11:20:17;101213.38;;;12.84;68.07
50684;BME280;36654;45.042;38.994;2023-03-21T11:22:46;101223.22;;;12.91;68.04
50684;BME280;36654;45.042;38.994;2023-03-21T11:25:42;101224.13;;;12.93;68.13
50684;BME280;36654;45.042;38.994;2023-03-21T11:28:18;101216.16;;;12.96;68.11
50684;BME280;36654;45.042;38.994;2023-03-21T11:30:56;101199.22;;;12.88;68.19
50684;BME280;36654;45.042;38.994;2023-03-21T11:33:26;101216.19;;;13.02;67.65
50684;BME280;36654;45.042;38.994;2023-03-21T11:36:04;101223.31;;;13.03;67.99
50684;BME280;36654;45.042;38.994;2023-03-21T11:38:37;101185.84;;;12.79;68.02
50684;BME280;36654;45.042;38.994;2023-03-21T11:41:04;101216.19;;;13.02;68.23
50684;BME280;36654;45.042;38.994;2023-03-21T11:43:39;101219.72;;;12.98;68.09
50684;BME280;36654;45.042;38.994;2023-03-21T11:46:07;101228.56;;;12.97;67.99
50684;BME280;36654;45.042;38.994;2023-03-21T11:48:40;101222.34;;;12.90;67.93
50684;BME280;36654;45.042;38.994;2023-03-21T11:54:16;101214.31;;;12.86;68.22
50684;BME280;36654;45.042;38.994;2023-03-21T11:56:47;101174.13;;;12.60;68.36
50684;BME280;36654;45.042;38.994;2023-03-21T12:07:26;101213.31;;;12.78;67.85
50684;BME280;36654;45.042;38.994;2023-03-21T12:15:16;101212.19;;;12.54;67.54
50684;BME280;36654;45.042;38.994;2023-03-21T12:37:37;101222.59;;;12.33;68.09
50684;BME280;36654;45.042;38.994;2023-03-21T12:43:20;101221.59;;;12.24;68.42
50684;BME280;36654;45.042;38.994;2023-03-21T12:45:52;101215.44;;;12.27;68.89
50684;BME280;36654;45.042;38.994;2023-03-21T12:48:37;101206.47;;;12.20;68.72
50684;BME280;36654;45.042;38.994;2023-03-21T12:51:11;101211.88;;;12.23;69.07
50684;BME280;36654;45.042;38.994;2023-03-21T12:56:12;101222.56;;;12.29;69.18
50684;BME280;36654;45.042;38.994;2023-03-21T13:01:39;101193.94;;;12.07;69.56
50684;BME280;36654;45.042;38.994;2023-03-21T13:04:41;101223.41;;;12.27;69.68
50684;BME280;36654;45.042;38.994;2023-03-21T13:07:14;101206.53;;;12.23;69.76
50684;BME280;36654;45.042;38.994;2023-03-21T13:09:42;101208.28;;;12.21;69.79
50684;BME280;36654;45.042;38.994;2023-03-21T13:12:25;101203.81;;;12.19;69.63
50684;BME280;36654;45.042;38.994;2023-03-21T13:15:21;101215.41;;;12.25;69.80
50684;BME280;36654;45.042;38.994;2023-03-21T13:17:47;101209.19;;;12.23;69.46
50684;BME280;36654;45.042;38.994;2023-03-21T13:20:46;101218.03;;;12.21;69.73
50684;BME280;36654;45.042;38.994;2023-03-21T13:23:11;101192.06;;;11.98;70.00
50684;BME280;36654;45.042;38.994;2023-03-21T13:25:46;101174.31;;;11.96;70.10
50684;BME280;36654;45.042;38.994;2023-03-21T13:28:22;101186.72;;;11.97;70.25
50684;BME280;36654;45.042;38.994;2023-03-21T13:30:50;101220.63;;;12.16;70.25
50684;BME280;36654;45.042;38.994;2023-03-21T13:33:22;101190.28;;;11.99;70.42
50684;BME280;36654;45.042;38.994;2023-03-21T13:36:08;101179.56;;;11.93;70.30
50684;BME280;36654;45.042;38.994;2023-03-21T13:38:35;101222.38;;;12.14;70.32
50684;BME280;36654;45.042;38.994;2023-03-21T13:43:55;101233.06;;;12.20;70.43
50684;BME280;36654;45.042;38.994;2023-03-21T13:46:34;101220.66;;;12.19;70.39
50684;BME280;36654;45.042;38.994;2023-03-21T13:49:13;101163.56;;;11.86;70.43
50684;BME280;36654;45.042;38.994;2023-03-21T13:51:45;101176.91;;;11.93;70.49
50684;BME280;36654;45.042;38.994;2023-03-21T13:54:18;101227.75;;;12.19;70.47
50684;BME280;36654;45.042;38.994;2023-03-21T14:04:36;101229.47;;;12.15;71.28
50684;BME280;36654;45.042;38.994;2023-03-21T14:09:39;101227.59;;;12.08;71.63
50684;BME280;36654;45.042;38.994;2023-03-21T14:12:12;101211.53;;;11.96;71.77
50684;BME280;36654;45.042;38.994;2023-03-21T14:14:48;101232.03;;;12.07;71.55
50684;BME280;36654;45.042;38.994;2023-03-21T14:19:53;101235.56;;;12.06;71.87
50684;BME280;36654;45.042;38.994;2023-03-21T14:22:20;101229.38;;;12.06;72.00
50684;BME280;36654;45.042;38.994;2023-03-21T14:24:57;101231.09;;;12.05;72.08
50684;BME280;36654;45.042;38.994;2023-03-21T14:27:26;101225.75;;;12.01;72.22
50684;BME280;36654;45.042;38.994;2023-03-21T14:29:54;101237.34;;;12.06;72.26
50684;BME280;36654;45.042;38.994;2023-03-21T14:32:26;101225.69;;;11.98;71.71
50684;BME280;36654;45.042;38.994;2023-03-21T14:34:54;101241.72;;;12.04;72.00
50684;BME280;36654;45.042;38.994;2023-03-21T14:37:31;101236.31;;;11.98;71.82